createdAt,value
2022-10-06T00:00:51.327Z,9.00
2022-10-06T00:03:18.636Z,9.10
2022-10-06T00:05:45.491Z,9.00
2022-10-06T00:08:12.545Z,9.10
2022-10-06T00:10:40.181Z,9.00
2022-10-06T00:15:35.394Z,8.80
2022-10-06T00:18:02.922Z,8.80
2022-10-06T00:20:30.296Z,8.80
2022-10-06T00:22:57.312Z,8.70
2022-10-06T00:25:25.820Z,8.70
2022-10-06T00:27:54.050Z,8.60
2022-10-06T00:30:23.965Z,8.60
2022-10-06T00:33:01.689Z,8.60
2022-10-06T00:35:33.753Z,8.50
2022-10-06T00:38:01.781Z,8.60
2022-10-06T00:40:29.650Z,8.50
2022-10-06T00:43:02.612Z,8.50
2022-10-06T00:45:43.983Z,8.50
2022-10-06T00:48:18.788Z,8.50
2022-10-06T00:50:46.679Z,8.40
2022-10-06T00:53:14.749Z,8.40
2022-10-06T00:55:41.648Z,8.40
2022-10-06T00:58:09.636Z,8.40
2022-10-06T01:00:36.700Z,8.40
2022-10-06T01:03:15.393Z,8.40
2022-10-06T01:05:49.871Z,8.40
2022-10-06T01:08:17.167Z,8.40
2022-10-06T01:10:44.586Z,8.40
2022-10-06T01:13:13.431Z,8.40
2022-10-06T01:16:00.295Z,8.40
2022-10-06T01:18:29.672Z,8.30
2022-10-06T01:21:14.899Z,8.40
2022-10-06T01:23:42.021Z,8.30
2022-10-06T01:26:11.592Z,8.50
2022-10-06T01:28:39.411Z,8.40
2022-10-06T01:31:08.263Z,8.40
2022-10-06T01:33:35.396Z,8.40
2022-10-06T01:36:02.308Z,8.40
2022-10-06T01:38:29.469Z,8.30
2022-10-06T01:40:56.770Z,8.20
2022-10-06T01:43:23.690Z,8.20
2022-10-06T01:45:55.347Z,8.20
2022-10-06T01:48:23.371Z,8.20
2022-10-06T01:50:50.844Z,8.20
2022-10-06T01:53:18.376Z,8.20
2022-10-06T01:55:45.364Z,8.20
2022-10-06T01:58:15.053Z,8.20
2022-10-06T02:00:42.745Z,8.20
2022-10-06T02:03:09.916Z,8.20
2022-10-06T02:05:36.893Z,8.20
2022-10-06T02:08:03.963Z,8.20
2022-10-06T02:10:30.960Z,8.10
2022-10-06T02:12:57.989Z,8.20
2022-10-06T02:15:26.936Z,8.30
2022-10-06T02:17:54.735Z,8.10
2022-10-06T02:20:22.103Z,8.10
2022-10-06T02:22:49.238Z,8.20
2022-10-06T02:25:17.321Z,8.00
2022-10-06T02:27:44.725Z,8.00
2022-10-06T02:30:14.548Z,8.10
2022-10-06T02:35:12.848Z,8.00
2022-10-06T02:37:41.471Z,8.10
2022-10-06T02:40:09.545Z,8.00
2022-10-06T02:42:37.856Z,8.00
2022-10-06T02:45:07.063Z,8.00
2022-10-06T02:47:35.445Z,8.00
2022-10-06T02:50:05.450Z,8.00
2022-10-06T02:52:37.084Z,8.10
2022-10-06T02:55:05.589Z,8.00
2022-10-06T02:57:32.472Z,8.00
2022-10-06T02:59:59.324Z,8.00
2022-10-06T03:02:26.428Z,8.00
2022-10-06T03:04:53.439Z,7.90
2022-10-06T03:07:20.327Z,8.00
2022-10-06T03:09:47.221Z,8.00
2022-10-06T03:12:14.090Z,7.90
2022-10-06T03:14:41.026Z,7.90
2022-10-06T03:17:10.207Z,7.90
2022-10-06T03:19:37.634Z,8.00
2022-10-06T03:22:05.801Z,7.90
2022-10-06T03:24:32.910Z,7.90
2022-10-06T03:26:59.902Z,7.90
2022-10-06T03:29:28.055Z,7.90
2022-10-06T03:31:54.917Z,7.90
2022-10-06T03:34:21.926Z,7.90
2022-10-06T03:36:48.790Z,7.90
2022-10-06T03:39:15.735Z,7.90
2022-10-06T03:41:42.661Z,7.90
2022-10-06T03:44:09.631Z,7.80
2022-10-06T03:46:37.355Z,7.80
2022-10-06T03:49:05.274Z,7.80
2022-10-06T03:51:35.719Z,7.90
2022-10-06T03:54:03.109Z,7.80
2022-10-06T03:56:35.180Z,7.90
2022-10-06T03:59:05.056Z,7.80
2022-10-06T04:01:33.626Z,7.90
2022-10-06T04:04:02.076Z,7.90
2022-10-06T04:06:31.303Z,7.90
2022-10-06T04:08:58.285Z,7.70
2022-10-06T04:14:03.501Z,7.80
2022-10-06T04:24:00.121Z,7.30
2022-10-06T04:26:30.751Z,7.60
2022-10-06T04:28:58.302Z,7.70
2022-10-06T04:31:30.602Z,7.60
2022-10-06T04:34:02.127Z,7.50
2022-10-06T04:36:32.332Z,7.60
2022-10-06T04:39:03.091Z,7.50
2022-10-06T04:54:18.737Z,7.50
2022-10-06T04:56:45.609Z,7.60
2022-10-06T04:59:12.549Z,7.60
2022-10-06T05:01:39.478Z,7.70
2022-10-06T05:04:06.849Z,7.70
2022-10-06T05:16:29.692Z,7.90
2022-10-06T05:18:57.184Z,8.20
2022-10-06T05:21:29.680Z,8.50
2022-10-06T05:23:57.007Z,8.50
2022-10-06T05:26:26.626Z,8.60
2022-10-06T05:28:53.874Z,8.80
2022-10-06T05:31:23.646Z,9.10
2022-10-06T05:33:50.881Z,8.90
2022-10-06T05:36:20.046Z,8.90
2022-10-06T05:38:47.219Z,9.30
2022-10-06T05:43:43.944Z,9.30
2022-10-06T05:46:17.471Z,9.60
2022-10-06T05:48:49.290Z,9.50
2022-10-06T05:51:17.582Z,9.70
2022-10-06T05:56:29.720Z,9.80
2022-10-06T06:03:53.245Z,10.00
2022-10-06T06:06:24.525Z,10.00
2022-10-06T06:46:18.903Z,10.20
2022-10-06T06:56:09.819Z,11.00
2022-10-06T06:58:36.920Z,11.10
2022-10-06T07:01:13.816Z,11.10
2022-10-06T07:03:57.133Z,11.20
2022-10-06T07:06:29.493Z,11.50
2022-10-06T07:09:00.449Z,11.30
2022-10-06T07:11:32.884Z,11.40
